createdAt,value
2022-11-06T00:00:43.626Z,3.6
2022-11-06T00:06:25.850Z,3.6
2022-11-06T00:11:47.303Z,4
2022-11-06T00:17:22.518Z,4.3
2022-11-06T00:22:59.238Z,4.2
2022-11-06T00:28:35.524Z,4
2022-11-06T00:34:08.685Z,3.9
2022-11-06T00:39:41.739Z,3.7
2022-11-06T00:45:04.381Z,3.3
2022-11-06T00:50:32.590Z,3.1
2022-11-06T00:56:05.318Z,3.1
2022-11-06T01:01:36.727Z,3
2022-11-06T01:07:16.831Z,2.8
2022-11-06T01:12:40.939Z,2.7
2022-11-06T01:18:20.179Z,2.9
2022-11-06T01:23:47.268Z,3
2022-11-06T01:29:28.926Z,3.1
2022-11-06T01:34:43.634Z,2.9
2022-11-06T01:40:20.737Z,2.8
2022-11-06T01:46:00.419Z,2.3
2022-11-06T01:51:21.195Z,2.3
2022-11-06T01:56:57.811Z,2.2
2022-11-06T02:02:44.033Z,2.1
2022-11-06T02:07:55.163Z,2.1
2022-11-06T02:13:36.996Z,1.8
2022-11-06T02:19:04.840Z,1.6
2022-11-06T02:24:46.206Z,1.9
2022-11-06T02:30:12.086Z,1.9
2022-11-06T02:35:52.938Z,2
2022-11-06T02:41:04.499Z,2
2022-11-06T02:46:57.735Z,2
2022-11-06T02:52:23.674Z,1.9
2022-11-06T02:57:40.351Z,1.9
2022-11-06T03:03:22.532Z,1.8
2022-11-06T03:09:04.198Z,1.8
2022-11-06T03:14:36.661Z,1.8
2022-11-06T03:20:01.285Z,1.7
2022-11-06T03:25:44.181Z,1.6
2022-11-06T03:31:11.410Z,1.6
2022-11-06T03:36:44.699Z,1.6
2022-11-06T03:42:02.269Z,1.9
2022-11-06T03:47:56.187Z,1.9
2022-11-06T03:53:09.872Z,2
2022-11-06T03:58:50.398Z,2
2022-11-06T04:04:05.964Z,2.1
2022-11-06T04:09:50.568Z,2.3
2022-11-06T04:15:11.176Z,2.3
2022-11-06T04:20:53.287Z,2.4
2022-11-06T04:26:30.845Z,2.3
2022-11-06T04:31:46.749Z,2.3
2022-11-06T04:37:19.733Z,2.3
2022-11-06T04:42:59.839Z,2.4
2022-11-06T04:48:46.042Z,2.4
2022-11-06T04:54:16.831Z,2.6
2022-11-06T04:59:50.607Z,2.6
2022-11-06T05:05:14.100Z,2.6
2022-11-06T05:10:35.255Z,2.8
2022-11-06T05:16:29.742Z,2.8
2022-11-06T05:21:36.886Z,2.7
2022-11-06T05:27:29.432Z,2.9
2022-11-06T05:32:49.073Z,2.8
2022-11-06T05:38:09.699Z,2.8
2022-11-06T05:43:48.280Z,2.7
2022-11-06T05:49:24.048Z,2.8
2022-11-06T05:54:58.239Z,2.7
2022-11-06T06:00:41.815Z,2.6
2022-11-06T06:06:00.337Z,2.6
2022-11-06T06:11:27.727Z,2.5
2022-11-06T06:17:20.811Z,2.5
2022-11-06T06:22:53.022Z,2.6
2022-11-06T06:28:16.365Z,2.5
2022-11-06T06:33:35.042Z,2.5
2022-11-06T06:39:12.077Z,2.7
2022-11-06T06:44:46.508Z,2.8
2022-11-06T06:50:17.053Z,2.8
2022-11-06T06:55:55.909Z,2.9
2022-11-06T07:01:26.448Z,2.9
2022-11-06T07:06:43.133Z,2.7
2022-11-06T07:12:42.100Z,2.9
2022-11-06T07:17:52.171Z,2.8
2022-11-06T07:23:43.716Z,2.8
2022-11-06T07:29:05.407Z,2.9
2022-11-06T07:34:32.852Z,3
2022-11-06T07:40:11.319Z,2.9
2022-11-06T07:45:47.461Z,2.7
2022-11-06T07:51:26.387Z,2.7
2022-11-06T07:56:42.683Z,2.9
2022-11-06T08:02:23.819Z,3.2
2022-11-06T08:08:03.674Z,3
2022-11-06T08:13:23.279Z,3
2022-11-06T08:19:09.718Z,3.1
2022-11-06T08:24:31.711Z,3.2
2022-11-06T08:30:06.329Z,3.2
2022-11-06T08:35:27.462Z,3.1
2022-11-06T08:41:00.291Z,2.9
2022-11-06T08:46:36.142Z,3
2022-11-06T08:52:12.681Z,2.9
2022-11-06T08:57:27.854Z,3
2022-11-06T09:03:10.092Z,3.2
2022-11-06T09:08:33.073Z,3.2
2022-11-06T09:14:06.332Z,3.1
2022-11-06T09:19:37.863Z,3.2
2022-11-06T09:25:13.578Z,3.3
2022-11-06T09:30:52.545Z,3.3
2022-11-06T09:36:35.179Z,3.4
2022-11-06T09:41:53.618Z,3.2
2022-11-06T09:47:43.727Z,3.5
2022-11-06T09:53:17.646Z,3.4
2022-11-06T09:58:45.416Z,3.3
2022-11-06T10:04:13.125Z,3.6
2022-11-06T10:09:28.705Z,3.7
2022-11-06T10:15:22.235Z,4
2022-11-06T10:20:44.612Z,3.9
2022-11-06T10:26:20.401Z,4
2022-11-06T10:31:59.282Z,3.7
2022-11-06T10:37:29.734Z,3.8
2022-11-06T10:42:51.102Z,3.7
2022-11-06T10:48:41.683Z,3.8
2022-11-06T10:53:56.012Z,4
2022-11-06T10:59:22.167Z,4.5
2022-11-06T11:05:06.616Z,4.1
2022-11-06T11:10:25.838Z,4.4
2022-11-06T11:16:05.453Z,4.3
2022-11-06T11:21:32.466Z,4.5
2022-11-06T11:27:22.779Z,4.7
2022-11-06T11:32:37.098Z,4.6
2022-11-06T11:38:22.588Z,4.6
2022-11-06T11:43:54.477Z,4.6
2022-11-06T11:49:20.184Z,4.9
2022-11-06T11:55:13.810Z,5
2022-11-06T12:00:42.617Z,5.1
2022-11-06T12:06:02.426Z,5.1
2022-11-06T12:11:25.383Z,4.9
2022-11-06T12:17:21.572Z,4.9
2022-11-06T12:22:41.418Z,4.8
2022-11-06T12:28:01.690Z,4.9
2022-11-06T12:34:05.395Z,4.9
2022-11-06T12:39:33.364Z,4.8
2022-11-06T12:44:59.252Z,5
2022-11-06T12:50:16.238Z,4.9
2022-11-06T12:55:54.936Z,5
2022-11-06T13:01:29.848Z,5.1
2022-11-06T13:06:58.914Z,5
2022-11-06T13:12:39.874Z,5.2
2022-11-06T13:18:16.009Z,5.3
2022-11-06T13:23:29.714Z,5.2
2022-11-06T13:29:18.733Z,5.2
2022-11-06T13:34:33.030Z,5.3
2022-11-06T13:40:12.466Z,5.3
2022-11-06T13:45:37.591Z,5.4
2022-11-06T13:51:12.306Z,5.4
2022-11-06T13:57:00.836Z,5.5
2022-11-06T14:02:31.977Z,5.6
2022-11-06T14:08:02.293Z,5.7
2022-11-06T14:13:40.891Z,5.8
2022-11-06T14:19:19.097Z,6
2022-11-06T14:24:55.740Z,5.9
2022-11-06T14:30:23.731Z,5.9
2022-11-06T14:35:48.040Z,5.9
2022-11-06T14:41:24.720Z,6
2022-11-06T14:47:02.689Z,6
2022-11-06T14:52:13.821Z,5.9
2022-11-06T14:57:58.276Z,6
2022-11-06T15:03:28.805Z,6.1
2022-11-06T15:08:54.603Z,6.1
2022-11-06T15:14:38.633Z,6.1
2022-11-06T15:20:12.753Z,6.1
2022-11-06T15:25:28.918Z,6.1
2022-11-06T15:31:11.246Z,6
2022-11-06T15:36:33.424Z,5.9
2022-11-06T15:42:23.214Z,5.9
2022-11-06T15:47:53.068Z,5.9
2022-11-06T15:53:10.789Z,5.8
2022-11-06T15:58:50.266Z,5.8
2022-11-06T16:04:17.370Z,5.8
2022-11-06T16:10:01.287Z,5.8
2022-11-06T16:15:37.900Z,5.9
2022-11-06T16:21:11.258Z,5.9
2022-11-06T16:26:40.403Z,5.8
2022-11-06T16:32:08.383Z,5.8
2022-11-06T16:37:36.938Z,5.6
2022-11-06T16:43:01.284Z,5.7
2022-11-06T16:48:36.095Z,5.8
2022-11-06T16:54:09.709Z,5.8
2022-11-06T16:59:32.435Z,5.9
2022-11-06T17:05:07.621Z,5.9
2022-11-06T17:10:54.128Z,5.9
2022-11-06T17:16:10.632Z,5.8
2022-11-06T17:22:00.865Z,5.8
2022-11-06T17:27:36.243Z,5.8
2022-11-06T17:33:05.965Z,5.9
2022-11-06T17:38:32.136Z,6
2022-11-06T17:43:59.507Z,6
2022-11-06T17:49:46.584Z,6
2022-11-06T17:54:56.740Z,6.1
2022-11-06T18:00:53.590Z,6.1
2022-11-06T18:06:17.066Z,6.1
2022-11-06T18:11:41.015Z,6.1
2022-11-06T18:17:32.669Z,5.9
2022-11-06T18:23:05.359Z,6
2022-11-06T18:28:20.844Z,6.1
2022-11-06T18:33:53.807Z,6.1
2022-11-06T18:39:35.451Z,6.1
2022-11-06T18:44:51.084Z,6.2
2022-11-06T18:50:40.640Z,6.3
2022-11-06T18:56:08.483Z,6.2
2022-11-06T19:01:33.793Z,6.2
2022-11-06T19:07:05.572Z,6.2
2022-11-06T19:12:55.337Z,6.2
2022-11-06T19:18:20.885Z,6.1
2022-11-06T19:23:58.968Z,6.1
2022-11-06T19:29:23.049Z,6.2
2022-11-06T19:35:06.375Z,6.2
2022-11-06T19:40:32.803Z,6.3
2022-11-06T19:46:05.710Z,6.5
2022-11-06T19:51:17.341Z,6.5
2022-11-06T19:57:26.720Z,6.5
2022-11-06T20:02:30.072Z,6.5
2022-11-06T20:08:07.327Z,6.7
2022-11-06T20:13:36.145Z,6.6
2022-11-06T20:19:19.662Z,6.7
2022-11-06T20:24:44.597Z,6.9
2022-11-06T20:30:08.746Z,6.8
2022-11-06T20:35:58.857Z,6.8
2022-11-06T20:41:35.144Z,6.8
2022-11-06T20:47:00.247Z,6.7
2022-11-06T20:52:27.892Z,6.7
2022-11-06T20:58:10.315Z,6.7
2022-11-06T21:03:17.540Z,6.7
2022-11-06T21:08:59.612Z,6.7
2022-11-06T21:14:35.096Z,6.7
2022-11-06T21:20:07.984Z,6.7
2022-11-06T21:25:48.884Z,6.7
2022-11-06T21:31:14.058Z,6.7
2022-11-06T21:36:42.757Z,6.7
2022-11-06T21:42:26.928Z,6.7
2022-11-06T21:47:43.090Z,6.6
2022-11-06T21:53:24.502Z,6.7
2022-11-06T21:58:55.705Z,6.7
2022-11-06T22:04:26.357Z,6.7
2022-11-06T22:09:59.082Z,6.8
2022-11-06T22:15:29.428Z,6.8
2022-11-06T22:21:17.685Z,6.8
2022-11-06T22:26:45.239Z,6.8
2022-11-06T22:32:08.892Z,6.8
2022-11-06T22:37:32.931Z,6.8
2022-11-06T22:43:23.795Z,6.8
2022-11-06T22:48:33.629Z,6.8
2022-11-06T22:54:16.416Z,6.9
2022-11-06T23:00:03.812Z,6.9
2022-11-06T23:05:22.701Z,6.9
2022-11-06T23:10:43.286Z,6.9
2022-11-06T23:16:21.817Z,7
2022-11-06T23:22:09.458Z,7.1
2022-11-06T23:27:41.660Z,7
2022-11-06T23:32:55.034Z,7
2022-11-06T23:38:28.180Z,7
2022-11-06T23:44:00.207Z,7
2022-11-06T23:49:57.922Z,7.1
2022-11-06T23:55:15.590Z,7.1
